createdAt,value
2023-05-12T00:00:31.824Z,0.52
2023-05-12T00:01:31.883Z,0.51
2023-05-12T00:02:31.900Z,0.52
2023-05-12T00:03:32.048Z,0.51
2023-05-12T00:04:31.955Z,0.52
2023-05-12T00:05:31.912Z,0.52
2023-05-12T00:06:31.946Z,0.52
2023-05-12T00:07:31.968Z,0.52
2023-05-12T00:08:31.990Z,0.52
2023-05-12T00:09:32.951Z,0.52
2023-05-12T00:10:31.995Z,0.52
2023-05-12T00:11:31.987Z,0.52
2023-05-12T00:12:31.993Z,0.52
2023-05-12T00:13:32.037Z,0.52
2023-05-12T00:14:32.024Z,0.52
2023-05-12T00:15:32.026Z,0.52
2023-05-12T00:16:32.124Z,0.51
2023-05-12T00:17:32.078Z,0.52
2023-05-12T00:18:32.040Z,0.52
2023-05-12T00:19:32.033Z,0.53
2023-05-12T00:20:32.046Z,0.52
2023-05-12T00:21:32.066Z,0.51
2023-05-12T00:22:32.075Z,0.52
2023-05-12T00:23:32.073Z,0.52
2023-05-12T00:24:32.089Z,0.52
2023-05-12T00:25:32.107Z,0.52
2023-05-12T00:26:32.123Z,0.53
2023-05-12T00:27:32.139Z,0.53
2023-05-12T00:28:32.136Z,0.53
2023-05-12T00:29:32.125Z,0.52
2023-05-12T00:30:32.165Z,0.53
2023-05-12T00:31:32.216Z,0.51
2023-05-12T00:32:32.281Z,0.52
2023-05-12T00:33:32.272Z,0.51
2023-05-12T00:34:32.334Z,0.52
2023-05-12T00:35:32.337Z,0.51
2023-05-12T00:36:32.364Z,0.53
2023-05-12T00:37:32.404Z,0.51
2023-05-12T00:38:32.451Z,0.51
2023-05-12T00:39:32.486Z,0.52
2023-05-12T00:40:32.530Z,0.52
2023-05-12T00:41:32.556Z,0.52
2023-05-12T00:42:32.585Z,0.52
2023-05-12T00:43:32.620Z,0.52
2023-05-12T00:44:32.625Z,0.50
2023-05-12T00:45:32.701Z,0.51
2023-05-12T00:46:32.700Z,0.51
2023-05-12T00:47:32.746Z,0.52
2023-05-12T00:48:32.732Z,0.52
2023-05-12T00:49:32.767Z,0.52
2023-05-12T00:50:32.788Z,0.51
2023-05-12T00:51:32.802Z,0.51
2023-05-12T00:52:32.839Z,0.52
2023-05-12T00:53:44.892Z,0.52
2023-05-12T00:54:33.882Z,0.52
2023-05-12T00:55:32.880Z,0.52
2023-05-12T00:56:32.882Z,0.51
2023-05-12T00:57:32.890Z,0.51
2023-05-12T00:58:32.902Z,0.51
2023-05-12T00:59:32.923Z,0.51
2023-05-12T01:00:32.917Z,0.52
2023-05-12T01:01:32.958Z,0.51
2023-05-12T01:02:33.016Z,0.52
2023-05-12T01:03:33.047Z,0.52
2023-05-12T01:04:32.967Z,0.52
2023-05-12T01:05:32.959Z,0.51
2023-05-12T01:06:32.986Z,0.52
2023-05-12T01:07:32.996Z,0.51
2023-05-12T01:08:32.986Z,0.53
2023-05-12T01:09:32.998Z,0.53
2023-05-12T01:10:32.996Z,0.53
2023-05-12T01:11:33.020Z,0.53
2023-05-12T01:12:33.006Z,0.50
2023-05-12T01:13:33.026Z,0.52
2023-05-12T01:14:33.021Z,0.52
2023-05-12T01:15:33.046Z,0.51
2023-05-12T01:16:33.051Z,0.51
2023-05-12T01:17:33.171Z,0.52
2023-05-12T01:18:33.155Z,0.50
2023-05-12T01:19:33.171Z,0.51
2023-05-12T01:20:33.176Z,0.51
2023-05-12T01:21:33.230Z,0.51
2023-05-12T01:22:33.268Z,0.50
2023-05-12T01:23:33.295Z,0.51
2023-05-12T01:24:33.366Z,0.51
2023-05-12T01:25:33.379Z,0.51
2023-05-12T01:26:33.410Z,0.51
2023-05-12T01:27:33.570Z,0.52
2023-05-12T01:28:33.490Z,0.52
2023-05-12T01:29:33.530Z,0.53
2023-05-12T01:30:33.572Z,0.51
2023-05-12T01:31:33.684Z,0.52
2023-05-12T01:32:33.671Z,0.51
2023-05-12T01:33:33.674Z,0.52
2023-05-12T01:34:33.729Z,0.51
2023-05-12T01:35:33.776Z,0.53
2023-05-12T01:36:33.799Z,0.53
2023-05-12T01:37:33.837Z,0.51
2023-05-12T01:38:33.892Z,0.52
2023-05-12T01:39:33.943Z,0.52
2023-05-12T01:40:33.970Z,0.51
2023-05-12T01:41:34.063Z,0.52
2023-05-12T01:42:34.041Z,0.52
2023-05-12T01:43:34.072Z,0.53
2023-05-12T01:44:34.121Z,0.53
2023-05-12T01:45:34.152Z,0.52
2023-05-12T01:46:34.291Z,0.53
2023-05-12T01:47:34.261Z,0.52
2023-05-12T01:48:34.319Z,0.52
2023-05-12T01:49:34.304Z,0.53
2023-05-12T01:50:34.346Z,0.52
2023-05-12T01:51:34.469Z,0.52
2023-05-12T01:52:34.403Z,0.52
2023-05-12T01:53:34.439Z,0.51
2023-05-12T01:54:34.474Z,0.51
2023-05-12T01:55:34.511Z,0.53
2023-05-12T01:56:34.543Z,0.53
2023-05-12T01:57:34.590Z,0.53
2023-05-12T01:58:34.639Z,0.52
2023-05-12T01:59:34.722Z,0.51
2023-05-12T02:00:34.711Z,0.51
2023-05-12T02:01:34.758Z,0.50
2023-05-12T02:02:34.810Z,0.51
2023-05-12T02:03:34.809Z,0.51
2023-05-12T02:04:34.837Z,0.53
2023-05-12T02:05:34.824Z,0.51
2023-05-12T02:06:34.858Z,0.51
2023-05-12T02:07:34.911Z,0.52
2023-05-12T02:08:35.053Z,0.51
2023-05-12T02:09:35.000Z,0.52
2023-05-12T02:10:35.126Z,0.53
2023-05-12T02:11:35.072Z,0.51
2023-05-12T02:12:36.011Z,0.52
2023-05-12T02:13:35.142Z,0.52
2023-05-12T02:14:35.160Z,0.51
2023-05-12T02:15:35.174Z,0.51
2023-05-12T02:16:35.244Z,0.53
2023-05-12T02:17:35.257Z,0.51
2023-05-12T02:18:35.362Z,0.51
2023-05-12T02:19:35.336Z,0.51
2023-05-12T02:20:35.406Z,0.51
2023-05-12T02:21:35.453Z,0.51
2023-05-12T02:22:35.481Z,0.52
2023-05-12T02:23:35.517Z,0.51
2023-05-12T02:24:35.552Z,0.51
2023-05-12T02:25:35.584Z,0.51
2023-05-12T02:26:35.635Z,0.52
2023-05-12T02:27:35.675Z,0.50
2023-05-12T02:28:35.734Z,0.51
2023-05-12T02:29:35.742Z,0.52
2023-05-12T02:30:35.773Z,0.52
2023-05-12T02:31:35.839Z,0.53
2023-05-12T02:32:35.868Z,0.52
2023-05-12T02:33:35.870Z,0.53
2023-05-12T02:34:35.906Z,0.52
2023-05-12T02:35:35.939Z,0.51
2023-05-12T02:36:35.952Z,0.51
2023-05-12T02:37:35.962Z,0.51
2023-05-12T02:38:35.973Z,0.51
2023-05-12T02:39:35.989Z,0.52
2023-05-12T02:40:36.010Z,0.52
2023-05-12T02:41:36.032Z,0.52
2023-05-12T02:42:36.039Z,0.52
2023-05-12T02:43:36.059Z,0.53
2023-05-12T02:44:36.072Z,0.53
2023-05-12T02:45:36.123Z,0.53
2023-05-12T02:46:36.115Z,0.53
2023-05-12T02:47:36.130Z,0.53
2023-05-12T02:48:36.134Z,0.52
2023-05-12T02:49:36.171Z,0.52
2023-05-12T02:50:36.146Z,0.52
2023-05-12T02:51:36.186Z,0.53
2023-05-12T02:52:36.187Z,0.53
2023-05-12T02:53:36.199Z,0.53
2023-05-12T02:54:36.191Z,0.53
2023-05-12T02:55:36.271Z,0.53
2023-05-12T02:56:36.227Z,0.53
2023-05-12T02:57:36.234Z,0.52
2023-05-12T02:58:36.333Z,0.52
2023-05-12T02:59:36.261Z,0.52
2023-05-12T03:00:36.280Z,0.53
2023-05-12T03:01:36.305Z,0.51
2023-05-12T03:02:36.396Z,0.53
2023-05-12T03:03:36.358Z,0.52
2023-05-12T03:04:36.326Z,0.52
2023-05-12T03:05:36.313Z,0.53
2023-05-12T03:06:36.327Z,0.53
2023-05-12T03:07:36.357Z,0.53
2023-05-12T03:08:36.332Z,0.53
2023-05-12T03:09:36.354Z,0.53
2023-05-12T03:10:36.371Z,0.53
2023-05-12T03:11:36.374Z,0.53
2023-05-12T03:12:36.392Z,0.52
2023-05-12T03:13:36.483Z,0.52
2023-05-12T03:14:36.470Z,0.54
2023-05-12T03:15:36.502Z,0.53
2023-05-12T03:16:36.590Z,0.53
2023-05-12T03:17:36.671Z,0.53
2023-05-12T03:18:36.681Z,0.53
2023-05-12T03:19:36.663Z,0.52
2023-05-12T03:20:36.709Z,0.53
2023-05-12T03:21:36.735Z,0.53
2023-05-12T03:22:36.762Z,0.53
2023-05-12T03:23:36.797Z,0.54
2023-05-12T03:24:36.837Z,0.52
2023-05-12T03:25:36.872Z,0.51
2023-05-12T03:26:36.924Z,0.53
2023-05-12T03:27:36.993Z,0.52
2023-05-12T03:28:37.023Z,0.53
2023-05-12T03:29:37.044Z,0.53
2023-05-12T03:30:37.076Z,0.52
2023-05-12T03:31:37.121Z,0.52
2023-05-12T03:32:37.170Z,0.52
2023-05-12T03:33:37.178Z,0.52
2023-05-12T03:34:37.224Z,0.52
2023-05-12T03:35:37.260Z,0.52
2023-05-12T03:36:37.301Z,0.52
2023-05-12T03:37:37.331Z,0.52
2023-05-12T03:38:37.354Z,0.53
2023-05-12T03:39:37.392Z,0.52
2023-05-12T03:40:37.434Z,0.52
2023-05-12T03:41:37.473Z,0.52
2023-05-12T03:42:37.490Z,0.52
2023-05-12T03:43:37.488Z,0.52
2023-05-12T03:44:37.521Z,0.53
2023-05-12T03:45:37.505Z,0.53
2023-05-12T03:46:37.560Z,0.53
2023-05-12T03:47:37.703Z,0.52
2023-05-12T03:48:37.546Z,0.52
2023-05-12T03:49:37.517Z,0.52
2023-05-12T03:50:37.540Z,0.53
2023-05-12T03:51:37.546Z,0.52
2023-05-12T03:52:37.543Z,0.53
2023-05-12T03:53:37.548Z,0.52
2023-05-12T03:54:38.140Z,0.53
2023-05-12T03:55:37.567Z,0.53
2023-05-12T03:56:37.586Z,0.53
2023-05-12T03:57:37.648Z,0.53
2023-05-12T03:58:37.608Z,0.52
2023-05-12T03:59:37.613Z,0.52
2023-05-12T04:00:38.869Z,0.52
2023-05-12T04:01:37.735Z,0.51
2023-05-12T04:02:37.808Z,0.52
2023-05-12T04:03:37.849Z,0.53
2023-05-12T04:04:37.784Z,0.52
2023-05-12T04:05:37.841Z,0.53
2023-05-12T04:06:37.891Z,0.53
2023-05-12T04:07:37.929Z,0.52
2023-05-12T04:08:39.720Z,0.53
2023-05-12T04:09:38.015Z,0.53
2023-05-12T04:10:37.996Z,0.53
2023-05-12T04:11:38.018Z,0.52
2023-05-12T04:12:38.008Z,0.53
2023-05-12T04:13:38.004Z,0.52
2023-05-12T04:14:42.851Z,0.52
2023-05-12T04:15:39.004Z,0.52
2023-05-12T04:16:38.046Z,0.53
2023-05-12T04:17:38.040Z,0.53
2023-05-12T04:18:38.060Z,0.53
2023-05-12T04:19:38.048Z,0.54
2023-05-12T04:20:38.048Z,0.52
2023-05-12T04:21:38.129Z,0.53
2023-05-12T04:22:38.072Z,0.52
2023-05-12T04:23:38.083Z,0.53
2023-05-12T04:24:38.092Z,0.52
2023-05-12T04:25:38.105Z,0.52
2023-05-12T04:26:38.109Z,0.52
2023-05-12T04:27:38.135Z,0.53
2023-05-12T04:28:38.126Z,0.52
2023-05-12T04:29:38.161Z,0.52
2023-05-12T04:30:38.192Z,0.51
2023-05-12T04:31:38.316Z,0.52
2023-05-12T04:32:38.315Z,0.52
2023-05-12T04:33:38.385Z,0.53
2023-05-12T04:34:38.412Z,0.54
2023-05-12T04:35:38.483Z,0.52
2023-05-12T04:36:38.523Z,0.53
2023-05-12T04:37:38.561Z,0.52
2023-05-12T04:38:38.605Z,0.53
2023-05-12T04:39:38.658Z,0.52
2023-05-12T04:40:38.698Z,0.52
2023-05-12T04:41:38.777Z,0.51
2023-05-12T04:42:38.846Z,0.53
2023-05-12T04:44:38.866Z,0.52
2023-05-12T04:45:38.880Z,0.52
2023-05-12T04:46:38.950Z,0.53
2023-05-12T04:47:39.012Z,0.53
2023-05-12T04:48:38.916Z,0.52
2023-05-12T04:49:38.946Z,0.53
2023-05-12T04:50:38.949Z,0.52
2023-05-12T04:51:38.969Z,0.53
2023-05-12T04:52:38.984Z,0.51
2023-05-12T04:53:39.081Z,0.52
2023-05-12T04:54:39.051Z,0.53
2023-05-12T04:55:39.059Z,0.53
2023-05-12T04:56:39.024Z,0.53
2023-05-12T04:57:39.132Z,0.53
2023-05-12T04:58:39.053Z,0.53
2023-05-12T04:59:41.041Z,0.54
2023-05-12T05:00:39.166Z,0.54
2023-05-12T05:01:39.258Z,0.53
2023-05-12T05:02:39.229Z,0.53
2023-05-12T05:03:39.223Z,0.51
2023-05-12T05:04:39.146Z,0.52
2023-05-12T05:05:39.188Z,0.52
2023-05-12T05:06:39.290Z,0.53
2023-05-12T05:07:39.279Z,0.52
2023-05-12T05:08:39.303Z,0.53
2023-05-12T05:09:39.322Z,0.54
2023-05-12T05:10:39.337Z,0.53
2023-05-12T05:11:39.369Z,0.53
2023-05-12T05:12:39.415Z,0.53
2023-05-12T05:13:39.444Z,0.53
2023-05-12T05:14:39.475Z,0.55
2023-05-12T05:15:39.528Z,0.55
2023-05-12T05:16:39.548Z,0.54
2023-05-12T05:17:39.641Z,0.53
2023-05-12T05:18:39.646Z,0.54
2023-05-12T05:19:53.715Z,0.53
2023-05-12T05:20:43.786Z,0.53
2023-05-12T05:21:39.687Z,0.54
2023-05-12T05:22:39.705Z,0.54
2023-05-12T05:23:39.715Z,0.54
2023-05-12T05:24:39.719Z,0.55
2023-05-12T05:25:39.771Z,0.55
2023-05-12T05:26:39.754Z,0.57
2023-05-12T05:27:39.777Z,0.54
2023-05-12T05:28:39.977Z,0.54
2023-05-12T05:29:39.805Z,0.55
2023-05-12T05:30:40.610Z,0.55
2023-05-12T05:31:39.869Z,0.54
2023-05-12T05:32:39.879Z,0.54
2023-05-12T05:33:39.865Z,0.54
2023-05-12T05:34:39.901Z,0.54
2023-05-12T05:35:39.901Z,0.54
2023-05-12T05:36:39.889Z,0.55
2023-05-12T05:37:39.995Z,0.58
2023-05-12T05:38:39.952Z,0.60
2023-05-12T05:39:39.941Z,0.65
2023-05-12T05:40:52.340Z,0.71
2023-05-12T05:41:40.944Z,0.71
2023-05-12T05:42:39.949Z,0.73
2023-05-12T05:43:39.957Z,0.78
2023-05-12T05:44:39.978Z,0.89
2023-05-12T05:45:39.985Z,1.10
2023-05-12T05:46:40.050Z,1.16
2023-05-12T05:47:40.132Z,1.22
2023-05-12T05:48:39.997Z,1.25
2023-05-12T05:49:39.993Z,1.32
2023-05-12T05:50:40.070Z,1.37
2023-05-12T05:51:40.000Z,1.44
2023-05-12T05:52:40.072Z,1.46
2023-05-12T05:53:40.000Z,1.55
2023-05-12T05:54:40.004Z,1.65
2023-05-12T05:55:40.003Z,1.73
2023-05-12T05:56:40.025Z,1.73
2023-05-12T05:57:40.032Z,1.76
2023-05-12T05:58:40.023Z,1.83
2023-05-12T05:59:40.051Z,1.95
2023-05-12T06:00:40.023Z,2.16
2023-05-12T06:01:40.057Z,1.75
2023-05-12T06:02:40.089Z,1.81
2023-05-12T06:03:40.100Z,1.95
2023-05-12T06:04:40.022Z,2.20
2023-05-12T06:05:40.021Z,2.65
2023-05-12T06:06:40.024Z,2.82
2023-05-12T06:07:40.028Z,2.84
2023-05-12T06:08:40.031Z,3.03
2023-05-12T06:09:40.055Z,3.06
2023-05-12T06:10:40.056Z,3.13
2023-05-12T06:11:40.059Z,3.35
2023-05-12T06:12:40.069Z,3.47
2023-05-12T06:13:40.102Z,3.58
2023-05-12T06:14:40.177Z,3.70
2023-05-12T06:15:40.203Z,3.88
2023-05-12T06:16:40.305Z,4.00
2023-05-12T06:17:40.335Z,4.13
2023-05-12T06:18:40.345Z,4.15
2023-05-12T06:19:40.314Z,4.20
2023-05-12T06:20:40.321Z,4.31
2023-05-12T06:21:40.315Z,4.55
2023-05-12T06:22:40.346Z,4.97
2023-05-12T06:23:40.323Z,5.52
2023-05-12T06:24:40.346Z,5.75
2023-05-12T06:25:40.419Z,5.96
2023-05-12T06:26:40.361Z,6.31
2023-05-12T06:27:40.354Z,6.60
2023-05-12T06:28:40.386Z,7.05
2023-05-12T06:29:40.351Z,7.20
2023-05-12T06:30:41.106Z,7.44
2023-05-12T06:31:40.593Z,7.45
2023-05-12T06:32:40.626Z,7.53
2023-05-12T06:33:40.631Z,7.70
2023-05-12T06:34:40.658Z,8.00
2023-05-12T06:35:40.651Z,8.33
2023-05-12T06:36:40.675Z,8.45
2023-05-12T06:37:40.696Z,8.61
2023-05-12T06:38:40.722Z,8.76
2023-05-12T06:39:40.719Z,8.56
2023-05-12T06:40:40.764Z,8.33
2023-05-12T06:41:40.786Z,8.22
2023-05-12T06:42:40.843Z,7.95
2023-05-12T06:43:40.864Z,8.07
2023-05-12T06:44:42.339Z,7.87
2023-05-12T06:45:40.865Z,8.14
2023-05-12T06:46:40.882Z,7.88
2023-05-12T06:47:40.949Z,7.71
2023-05-12T06:48:40.906Z,7.09
2023-05-12T06:49:40.906Z,7.17
2023-05-12T06:50:40.913Z,7.06
2023-05-12T06:51:40.942Z,6.98
2023-05-12T06:52:40.957Z,6.62
2023-05-12T06:53:40.981Z,6.24
2023-05-12T06:54:40.992Z,5.90
2023-05-12T06:55:41.020Z,5.54
2023-05-12T06:56:41.070Z,5.34
2023-05-12T06:57:41.091Z,5.20
2023-05-12T06:58:41.133Z,5.04
2023-05-12T06:59:41.138Z,4.86
2023-05-12T07:00:41.173Z,4.56
2023-05-12T07:01:41.329Z,4.60
2023-05-12T07:02:41.382Z,4.39
2023-05-12T07:03:41.344Z,4.30
2023-05-12T07:04:41.351Z,4.15
2023-05-12T07:05:41.444Z,4.09
2023-05-12T07:06:41.384Z,4.02
2023-05-12T07:07:41.446Z,3.92
2023-05-12T07:08:41.486Z,3.65
2023-05-12T07:09:41.533Z,3.52
2023-05-12T07:10:41.558Z,3.47
2023-05-12T07:11:41.610Z,3.40
2023-05-12T07:12:41.656Z,3.27
2023-05-12T07:13:41.765Z,3.24
2023-05-12T07:14:41.757Z,3.19
2023-05-12T07:15:41.995Z,3.08
2023-05-12T07:16:41.809Z,3.00
2023-05-12T07:17:42.018Z,2.96
2023-05-12T07:18:42.181Z,2.91
2023-05-12T07:19:41.954Z,2.84
2023-05-12T07:20:42.022Z,2.78
2023-05-12T07:21:42.088Z,2.79
2023-05-12T07:22:42.188Z,2.75
2023-05-12T07:23:42.158Z,2.71
2023-05-12T07:24:42.239Z,2.62
2023-05-12T07:25:42.302Z,2.54
2023-05-12T07:26:42.305Z,2.50
2023-05-12T07:27:42.334Z,2.48
2023-05-12T07:28:42.401Z,2.39
2023-05-12T07:29:42.446Z,2.34
2023-05-12T07:30:42.442Z,2.34
2023-05-12T07:31:42.493Z,2.35
2023-05-12T07:32:42.466Z,2.36
2023-05-12T07:33:42.440Z,2.35
2023-05-12T07:34:42.493Z,2.40
2023-05-12T07:35:42.417Z,2.33
2023-05-12T07:36:42.415Z,2.34
2023-05-12T07:37:42.801Z,2.32
2023-05-12T07:38:42.425Z,2.36
2023-05-12T07:39:42.399Z,2.41
2023-05-12T07:40:42.392Z,2.39
2023-05-12T07:41:42.395Z,2.36
2023-05-12T07:42:42.422Z,2.30
2023-05-12T07:43:42.484Z,1.31
2023-05-12T07:44:42.402Z,0.76
2023-05-12T07:45:42.421Z,1.24
2023-05-12T07:46:42.390Z,1.25
2023-05-12T07:47:42.417Z,1.26
2023-05-12T07:48:42.372Z,1.33
2023-05-12T07:49:42.340Z,1.44
2023-05-12T07:50:42.385Z,1.61
2023-05-12T07:51:42.334Z,1.75
2023-05-12T07:52:43.221Z,1.79
2023-05-12T07:53:42.367Z,1.81
2023-05-12T07:54:42.342Z,1.84
2023-05-12T07:55:42.314Z,1.89
2023-05-12T07:56:44.143Z,1.88
2023-05-12T07:57:42.323Z,1.97
2023-05-12T07:58:42.321Z,1.99
2023-05-12T07:59:42.366Z,1.94
2023-05-12T08:00:42.326Z,1.92
2023-05-12T08:01:42.325Z,1.87
2023-05-12T08:02:42.499Z,1.89
2023-05-12T08:03:42.417Z,1.90
2023-05-12T08:04:44.370Z,1.90
2023-05-12T08:05:42.309Z,1.90
2023-05-12T08:06:42.298Z,1.90
2023-05-12T08:07:42.323Z,1.94
2023-05-12T08:08:42.312Z,1.90
2023-05-12T08:09:42.305Z,1.92
2023-05-12T08:10:42.309Z,1.94
2023-05-12T08:11:44.026Z,1.97
2023-05-12T08:12:42.321Z,1.93
2023-05-12T08:13:42.300Z,1.79
2023-05-12T08:14:42.360Z,1.77
2023-05-12T08:15:42.307Z,1.88
2023-05-12T08:16:42.402Z,1.87
2023-05-12T08:17:42.356Z,1.90
2023-05-12T08:18:42.345Z,1.83
2023-05-12T08:19:42.306Z,1.71
2023-05-12T08:20:42.320Z,1.74
2023-05-12T08:21:42.519Z,1.64
2023-05-12T08:22:42.315Z,1.69
2023-05-12T08:23:42.314Z,1.65
2023-05-12T08:24:42.317Z,1.61
2023-05-12T08:25:42.336Z,1.51
2023-05-12T08:26:42.445Z,1.59
2023-05-12T08:27:42.376Z,1.63
2023-05-12T08:28:42.334Z,1.50
2023-05-12T08:29:42.324Z,1.32
2023-05-12T08:30:42.426Z,1.06
2023-05-12T08:31:42.419Z,0.60
2023-05-12T08:32:42.397Z,0.34
2023-05-12T08:33:42.325Z,0.34
2023-05-12T08:34:42.320Z,0.35
2023-05-12T08:35:42.331Z,0.69
2023-05-12T08:36:42.381Z,1.27
2023-05-12T08:37:42.524Z,1.53
2023-05-12T08:38:42.491Z,1.62
2023-05-12T08:39:42.529Z,1.49
2023-05-12T08:40:42.579Z,1.33
2023-05-12T08:41:43.169Z,1.15
2023-05-12T08:42:42.615Z,0.98
2023-05-12T08:43:42.666Z,0.75
2023-05-12T08:44:42.703Z,0.63
2023-05-12T08:45:42.725Z,0.53
2023-05-12T08:46:42.867Z,0.50
2023-05-12T08:47:42.866Z,0.50
2023-05-12T08:48:43.155Z,0.50
2023-05-12T08:49:42.856Z,0.46
2023-05-12T08:50:42.840Z,0.34
2023-05-12T08:51:43.660Z,0.34
2023-05-12T08:52:42.847Z,0.34
2023-05-12T08:53:42.888Z,0.34
2023-05-12T08:54:54.933Z,0.34
2023-05-12T08:55:54.172Z,0.34
2023-05-12T08:57:42.920Z,0.34
2023-05-12T08:58:42.936Z,0.34
2023-05-12T08:59:42.924Z,0.34
2023-05-12T09:00:42.973Z,0.34
2023-05-12T09:01:43.048Z,0.34
2023-05-12T09:02:53.155Z,0.34
2023-05-12T09:03:44.171Z,0.34
2023-05-12T09:04:43.224Z,0.34
2023-05-12T09:05:43.233Z,0.34
2023-05-12T09:06:43.342Z,0.34
2023-05-12T09:07:43.293Z,0.34
2023-05-12T09:08:43.339Z,0.44
2023-05-12T09:09:43.425Z,0.48
2023-05-12T09:10:43.424Z,0.54
2023-05-12T09:11:43.451Z,0.55
2023-05-12T09:12:43.502Z,0.50
2023-05-12T09:13:43.563Z,0.49
2023-05-12T09:14:43.599Z,0.58
2023-05-12T09:15:43.659Z,0.63
2023-05-12T09:16:43.782Z,0.66
2023-05-12T09:17:43.772Z,0.79
2023-05-12T09:18:43.833Z,0.64
2023-05-12T09:19:43.800Z,0.56
2023-05-12T09:20:43.855Z,0.50
2023-05-12T09:21:43.909Z,0.65
2023-05-12T09:22:43.953Z,0.80
2023-05-12T09:23:43.948Z,0.81
2023-05-12T09:24:44.028Z,0.55
2023-05-12T09:25:44.000Z,0.60
2023-05-12T09:26:43.969Z,0.68
2023-05-12T09:27:43.953Z,0.57
2023-05-12T09:28:44.039Z,0.65
2023-05-12T09:29:58.108Z,0.46
2023-05-12T09:30:45.026Z,0.56
2023-05-12T09:31:43.990Z,0.43
2023-05-12T09:32:43.965Z,0.51
2023-05-12T09:33:43.966Z,0.51
2023-05-12T09:34:43.981Z,0.55
2023-05-12T09:35:43.976Z,0.50
2023-05-12T09:36:43.979Z,0.62
2023-05-12T09:37:43.978Z,0.66
2023-05-12T09:38:44.012Z,0.58
2023-05-12T09:39:44.016Z,0.49
2023-05-12T09:40:44.016Z,0.50
2023-05-12T09:41:44.021Z,0.59
2023-05-12T09:42:44.030Z,0.75
2023-05-12T09:43:44.023Z,0.78
2023-05-12T09:44:44.013Z,0.92
2023-05-12T09:45:44.290Z,1.09
2023-05-12T09:46:44.195Z,1.31
2023-05-12T09:47:44.209Z,1.48
2023-05-12T09:48:44.192Z,1.70
2023-05-12T09:49:44.261Z,1.91
2023-05-12T09:50:47.315Z,2.21
2023-05-12T09:51:44.402Z,2.23
2023-05-12T09:52:44.259Z,2.30
2023-05-12T09:53:44.288Z,2.55
2023-05-12T09:54:44.278Z,3.05
2023-05-12T09:55:44.246Z,3.93
2023-05-12T09:56:44.252Z,2.27
2023-05-12T09:57:44.312Z,2.48
2023-05-12T09:58:44.252Z,2.95
2023-05-12T09:59:44.257Z,3.87
2023-05-12T10:01:44.264Z,5.98
2023-05-12T10:02:44.294Z,6.36
2023-05-12T10:03:44.277Z,6.48
2023-05-12T10:04:44.273Z,6.78
2023-05-12T10:05:44.227Z,6.92
2023-05-12T10:06:44.262Z,7.11
2023-05-12T10:07:44.292Z,7.27
2023-05-12T10:08:44.340Z,7.27
2023-05-12T10:09:44.376Z,7.40
2023-05-12T10:10:44.371Z,7.55
2023-05-12T10:11:44.371Z,7.56
2023-05-12T10:12:44.415Z,7.58
2023-05-12T10:13:44.375Z,7.59
2023-05-12T10:14:44.390Z,7.62
2023-05-12T10:15:44.544Z,7.59
2023-05-12T10:16:44.375Z,7.69
2023-05-12T10:17:44.451Z,7.89
2023-05-12T10:18:44.425Z,7.59
2023-05-12T10:19:44.369Z,7.71
2023-05-12T10:20:44.349Z,7.93
2023-05-12T10:21:44.356Z,8.24
2023-05-12T10:22:44.365Z,8.82
2023-05-12T10:23:44.386Z,8.65
2023-05-12T10:24:44.398Z,8.69
2023-05-12T10:25:44.362Z,8.77
2023-05-12T10:26:45.160Z,8.91
2023-05-12T10:27:44.400Z,8.75
2023-05-12T10:28:44.368Z,8.70
2023-05-12T10:29:44.436Z,8.95
2023-05-12T10:30:44.357Z,8.95
2023-05-12T10:31:44.407Z,8.70
2023-05-12T10:32:44.407Z,9.13
2023-05-12T10:33:44.406Z,8.97
2023-05-12T10:34:44.426Z,9.29
2023-05-12T10:35:45.405Z,9.20
2023-05-12T10:36:44.636Z,9.68
2023-05-12T10:37:44.599Z,9.20
2023-05-12T10:38:44.638Z,9.02
2023-05-12T10:39:44.672Z,8.92
2023-05-12T10:40:44.744Z,9.20
2023-05-12T10:41:44.767Z,9.91
2023-05-12T10:42:44.787Z,9.79
2023-05-12T10:43:44.811Z,9.97
2023-05-12T10:44:44.824Z,10.00
2023-05-12T10:45:45.773Z,10.65
2023-05-12T10:46:45.046Z,10.27
2023-05-12T10:47:44.966Z,10.24
2023-05-12T10:48:44.949Z,10.06
2023-05-12T10:49:44.977Z,9.52
2023-05-12T10:50:44.987Z,9.02
2023-05-12T10:51:45.056Z,8.78
2023-05-12T10:52:45.043Z,9.11
2023-05-12T10:53:50.188Z,9.11
2023-05-12T10:54:46.060Z,9.12
2023-05-12T10:55:45.268Z,9.17
2023-05-12T10:56:45.300Z,9.28
2023-05-12T10:57:45.280Z,9.36
2023-05-12T10:58:45.302Z,9.15
2023-05-12T10:59:45.281Z,8.86
2023-05-12T11:00:45.863Z,8.39
2023-05-12T11:01:46.520Z,8.47
2023-05-12T11:02:45.931Z,8.27
2023-05-12T11:03:46.019Z,8.14
2023-05-12T11:04:45.313Z,8.10
2023-05-12T11:05:45.946Z,7.99
2023-05-12T11:06:45.657Z,7.99
2023-05-12T11:07:45.637Z,7.55
2023-05-12T11:08:46.003Z,7.63
2023-05-12T11:09:56.869Z,7.49
2023-05-12T11:10:47.073Z,7.35
2023-05-12T11:11:45.765Z,7.66
2023-05-12T11:12:45.236Z,7.89
2023-05-12T11:13:45.277Z,7.82
2023-05-12T11:14:45.199Z,7.41
2023-05-12T11:15:45.202Z,7.15
2023-05-12T11:16:45.295Z,7.01
2023-05-12T11:17:45.248Z,6.87
2023-05-12T11:18:47.709Z,6.69
2023-05-12T11:19:45.353Z,6.47
2023-05-12T11:20:46.202Z,6.13
2023-05-12T11:21:45.416Z,6.21
2023-05-12T11:22:45.825Z,6.31
2023-05-12T11:23:45.517Z,5.94
2023-05-12T11:24:45.612Z,5.67
2023-05-12T11:25:45.758Z,5.83
2023-05-12T11:26:45.763Z,5.59
2023-05-12T11:27:46.397Z,5.68
2023-05-12T11:28:45.808Z,5.57
2023-05-12T11:29:46.215Z,5.55
2023-05-12T11:30:45.828Z,5.42
2023-05-12T11:31:45.817Z,5.32
2023-05-12T11:32:45.923Z,5.25
2023-05-12T11:33:45.907Z,5.01
2023-05-12T11:34:46.234Z,4.90
2023-05-12T11:35:45.969Z,5.10
2023-05-12T11:36:46.002Z,4.72
2023-05-12T11:37:46.037Z,4.78
2023-05-12T11:38:46.066Z,4.93
2023-05-12T11:39:46.105Z,4.74
2023-05-12T11:40:46.176Z,4.54
2023-05-12T11:41:46.149Z,4.60
2023-05-12T11:42:46.207Z,4.59
2023-05-12T11:43:46.234Z,4.68
2023-05-12T11:44:46.256Z,4.62
2023-05-12T11:45:46.414Z,4.45
2023-05-12T11:46:46.319Z,4.29
2023-05-12T11:47:46.374Z,4.37
2023-05-12T11:48:46.366Z,4.38
2023-05-12T11:49:46.448Z,4.19
2023-05-12T11:50:46.434Z,4.14
2023-05-12T11:51:46.453Z,4.31
2023-05-12T11:52:46.464Z,4.22
2023-05-12T11:53:46.520Z,4.07
2023-05-12T11:54:46.538Z,3.96
2023-05-12T11:55:46.551Z,3.89
2023-05-12T11:56:46.577Z,3.80
2023-05-12T11:57:46.611Z,4.01
2023-05-12T11:58:46.615Z,4.01
2023-05-12T11:59:46.664Z,3.93
2023-05-12T12:00:46.649Z,4.04
2023-05-12T12:01:46.670Z,3.77
2023-05-12T12:02:46.715Z,3.79
2023-05-12T12:03:46.794Z,3.71
2023-05-12T12:04:46.710Z,3.68
2023-05-12T12:05:46.781Z,3.65
2023-05-12T12:06:46.747Z,3.52
2023-05-12T12:07:46.778Z,3.79
2023-05-12T12:08:46.764Z,3.65
2023-05-12T12:09:46.803Z,3.59
2023-05-12T12:10:46.812Z,3.37
2023-05-12T12:11:46.851Z,3.48
2023-05-12T12:12:46.865Z,3.48
2023-05-12T12:13:46.878Z,3.51
2023-05-12T12:14:46.896Z,3.52
2023-05-12T12:15:46.977Z,3.51
2023-05-12T12:16:46.913Z,3.44
2023-05-12T12:17:46.997Z,3.68
2023-05-12T12:18:46.993Z,3.69
2023-05-12T12:19:47.000Z,3.58
2023-05-12T12:20:46.991Z,3.42
2023-05-12T12:21:47.057Z,3.24
2023-05-12T12:22:47.027Z,3.48
2023-05-12T12:23:51.359Z,3.59
2023-05-12T12:24:47.034Z,3.56
2023-05-12T12:25:47.022Z,3.53
2023-05-12T12:26:47.041Z,3.49
2023-05-12T12:27:47.051Z,3.52
2023-05-12T12:28:47.017Z,3.47
2023-05-12T12:29:47.057Z,3.46
2023-05-12T12:30:46.993Z,3.46
2023-05-12T12:31:47.094Z,3.48
2023-05-12T12:32:47.005Z,3.52
2023-05-12T12:33:47.025Z,3.41
2023-05-12T12:34:46.964Z,3.45
2023-05-12T12:35:47.020Z,3.34
2023-05-12T12:36:46.944Z,3.31
2023-05-12T12:37:46.927Z,3.32
2023-05-12T12:38:46.933Z,3.26
2023-05-12T12:39:46.933Z,3.18
2023-05-12T12:40:46.920Z,3.10
2023-05-12T12:41:46.920Z,3.42
2023-05-12T12:42:46.906Z,3.06
2023-05-12T12:43:46.919Z,3.11
2023-05-12T12:44:47.742Z,3.19
2023-05-12T12:45:46.882Z,3.02
2023-05-12T12:46:46.941Z,2.72
2023-05-12T12:47:46.916Z,2.81
2023-05-12T12:48:46.905Z,2.81
2023-05-12T12:49:46.885Z,2.71
2023-05-12T12:50:46.857Z,2.68
2023-05-12T12:51:47.382Z,2.65
2023-05-12T12:52:46.894Z,2.90
2023-05-12T12:53:46.867Z,2.66
2023-05-12T12:54:46.839Z,2.73
2023-05-12T12:55:46.858Z,2.84
2023-05-12T12:56:46.865Z,2.88
2023-05-12T12:57:46.854Z,2.86
2023-05-12T12:58:46.845Z,2.70
2023-05-12T12:59:46.836Z,3.01
2023-05-12T13:00:46.850Z,2.76
2023-05-12T13:01:46.872Z,2.93
2023-05-12T13:02:46.938Z,2.85
2023-05-12T13:03:46.838Z,2.85
2023-05-12T13:04:46.820Z,2.78
2023-05-12T13:05:46.809Z,2.75
2023-05-12T13:06:46.823Z,2.73
2023-05-12T13:07:46.818Z,2.59
2023-05-12T13:08:46.796Z,2.69
2023-05-12T13:09:46.800Z,2.70
2023-05-12T13:10:46.779Z,2.67
2023-05-12T13:11:46.796Z,2.68
2023-05-12T13:12:46.771Z,2.61
2023-05-12T13:13:46.750Z,2.50
2023-05-12T13:14:46.767Z,2.69
2023-05-12T13:15:46.855Z,2.70
2023-05-12T13:16:46.740Z,2.86
2023-05-12T13:17:46.770Z,2.57
2023-05-12T13:18:46.755Z,2.69
2023-05-12T13:19:46.723Z,2.48
2023-05-12T13:20:46.718Z,2.52
2023-05-12T13:21:46.715Z,2.46